createdAt,value
2019-04-19T00:00:49.876Z,933.71
2019-04-19T00:01:52.110Z,933.73
2019-04-19T00:02:46.084Z,933.74
2019-04-19T00:03:44.915Z,933.78
2019-04-19T00:04:49.442Z,933.77
2019-04-19T00:05:47.505Z,933.78
2019-04-19T00:06:45.946Z,933.80
2019-04-19T00:07:49.589Z,933.79
2019-04-19T00:09:00.134Z,933.79
2019-04-19T00:09:52.239Z,933.84
2019-04-19T00:10:51.165Z,933.81
2019-04-19T00:11:55.952Z,933.85
2019-04-19T00:12:51.421Z,933.90
2019-04-19T00:13:43.303Z,933.86
2019-04-19T00:14:44.354Z,933.89
2019-04-19T00:15:43.581Z,933.89
2019-04-19T00:16:43.329Z,933.90
2019-04-19T00:17:43.977Z,933.91
2019-04-19T00:19:01.327Z,933.92
2019-04-19T00:20:09.600Z,933.97
2019-04-19T00:21:05.430Z,933.96
2019-04-19T00:22:08.644Z,934.00
2019-04-19T00:23:00.757Z,933.98
2019-04-19T00:23:45.744Z,934.03
2019-04-19T00:24:43.747Z,934.00
2019-04-19T00:25:43.254Z,934.07
2019-04-19T00:26:44.252Z,934.07
2019-04-19T00:27:49.491Z,934.06
2019-04-19T00:28:50.784Z,934.08
2019-04-19T00:29:53.082Z,934.11
2019-04-19T00:30:51.812Z,934.08
2019-04-19T00:32:03.960Z,934.11
2019-04-19T00:33:02.354Z,934.12
2019-04-19T00:33:47.594Z,934.11
2019-04-19T00:34:44.234Z,934.13
2019-04-19T00:35:43.434Z,934.13
2019-04-19T00:36:43.158Z,934.20
2019-04-19T00:37:43.145Z,934.17
2019-04-19T00:38:54.254Z,934.17
2019-04-19T00:40:03.045Z,934.16
2019-04-19T00:41:00.207Z,934.13
2019-04-19T00:42:08.577Z,934.18
2019-04-19T00:42:57.169Z,934.16
2019-04-19T00:43:58.897Z,934.14
2019-04-19T00:45:04.957Z,934.17
2019-04-19T00:46:01.185Z,934.18
2019-04-19T00:47:02.536Z,934.19
2019-04-19T00:47:57.552Z,934.19
2019-04-19T00:48:58.225Z,934.20
2019-04-19T00:49:58.049Z,934.23
2019-04-19T00:50:56.309Z,934.23
2019-04-19T00:51:57.203Z,934.24
2019-04-19T00:52:56.921Z,934.20
2019-04-19T00:53:55.677Z,934.20
2019-04-19T00:54:52.084Z,934.25
2019-04-19T00:55:54.359Z,934.21
2019-04-19T00:56:50.423Z,934.23
2019-04-19T00:57:49.831Z,934.23
2019-04-19T00:58:50.226Z,934.23
2019-04-19T00:59:47.159Z,934.21
2019-04-19T01:00:43.113Z,934.23
2019-04-19T01:01:46.820Z,934.20
2019-04-19T01:02:48.890Z,934.17
2019-04-19T01:03:46.295Z,934.20
2019-04-19T01:04:43.243Z,934.17
2019-04-19T01:05:50.407Z,934.19
2019-04-19T01:06:49.838Z,934.18
2019-04-19T01:07:43.720Z,934.15
2019-04-19T01:08:56.365Z,934.14
2019-04-19T01:09:56.430Z,934.15
2019-04-19T01:10:59.126Z,934.17
2019-04-19T01:11:54.885Z,934.14
2019-04-19T01:12:58.055Z,934.16
2019-04-19T01:13:58.577Z,934.15
2019-04-19T01:14:49.721Z,934.18
2019-04-19T01:15:59.695Z,934.15
2019-04-19T01:17:00.768Z,934.16
2019-04-19T01:18:01.633Z,934.14
2019-04-19T01:18:52.361Z,934.13
2019-04-19T01:19:47.172Z,934.08
2019-04-19T01:20:43.766Z,934.08
2019-04-19T01:21:43.000Z,934.06
2019-04-19T01:22:43.936Z,934.04
2019-04-19T01:23:50.202Z,934.05
2019-04-19T01:24:46.320Z,934.01
2019-04-19T01:25:46.102Z,934.03
2019-04-19T01:26:46.232Z,934.04
2019-04-19T01:27:42.637Z,934.01
2019-04-19T01:28:45.326Z,934.01
2019-04-19T01:29:46.850Z,934.03
2019-04-19T01:30:44.423Z,934.04
2019-04-19T01:31:43.702Z,934.03
2019-04-19T01:32:49.424Z,934.05
2019-04-19T01:33:44.219Z,934.10
2019-04-19T01:34:45.788Z,934.05
2019-04-19T01:35:47.447Z,934.08
2019-04-19T01:36:45.695Z,934.05
2019-04-19T01:37:43.137Z,934.08
2019-04-19T01:38:49.446Z,934.04
2019-04-19T01:40:00.816Z,934.04
2019-04-19T01:41:00.331Z,934.06
2019-04-19T01:41:55.125Z,934.02
2019-04-19T01:42:57.698Z,934.04
2019-04-19T01:43:56.347Z,934.02
2019-04-19T01:44:57.717Z,934.00
2019-04-19T01:46:00.550Z,934.00
2019-04-19T01:46:56.240Z,934.00
2019-04-19T01:47:58.978Z,933.96
2019-04-19T01:48:53.980Z,933.99
2019-04-19T01:49:56.591Z,934.01
2019-04-19T01:50:57.935Z,934.01
2019-04-19T01:51:55.951Z,934.01
2019-04-19T01:53:03.527Z,934.02
2019-04-19T01:54:03.097Z,934.02
2019-04-19T01:54:54.361Z,934.03
2019-04-19T01:55:44.812Z,934.00
2019-04-19T01:56:48.355Z,934.00
2019-04-19T01:57:43.081Z,934.03
2019-04-19T01:58:47.093Z,934.00
2019-04-19T01:59:48.364Z,933.99
2019-04-19T02:00:49.527Z,933.98
2019-04-19T02:01:42.343Z,934.01
2019-04-19T02:02:48.141Z,934.00
2019-04-19T02:03:46.210Z,934.00
2019-04-19T02:04:43.451Z,933.96
2019-04-19T02:05:48.511Z,933.97
2019-04-19T02:06:45.179Z,933.94
2019-04-19T02:07:42.540Z,933.99
2019-04-19T02:08:49.371Z,933.97
2019-04-19T02:10:01.547Z,934.00
2019-04-19T02:10:53.124Z,934.01
2019-04-19T02:11:51.307Z,934.02
2019-04-19T02:12:49.799Z,934.05
2019-04-19T02:13:53.197Z,934.03
2019-04-19T02:14:51.616Z,934.02
2019-04-19T02:15:46.488Z,934.06
2019-04-19T02:16:49.643Z,934.07
2019-04-19T02:17:47.850Z,934.06
2019-04-19T02:18:43.094Z,934.08
2019-04-19T02:19:48.077Z,934.04
2019-04-19T02:20:46.738Z,934.02
2019-04-19T02:21:45.208Z,934.04
2019-04-19T02:22:42.747Z,934.03
2019-04-19T02:23:50.760Z,934.06
2019-04-19T02:24:45.813Z,934.08
2019-04-19T02:25:43.401Z,934.06
2019-04-19T02:26:46.369Z,934.08
2019-04-19T02:27:45.542Z,934.01
2019-04-19T02:28:43.911Z,934.01
2019-04-19T02:29:49.778Z,934.04
2019-04-19T02:30:53.567Z,934.03
2019-04-19T02:32:07.262Z,934.04
2019-04-19T02:33:13.192Z,934.02
2019-04-19T02:34:15.981Z,933.99
2019-04-19T02:35:06.043Z,934.01
2019-04-19T02:36:10.504Z,933.98
2019-04-19T02:37:07.967Z,934.02
2019-04-19T02:38:03.756Z,934.01
2019-04-19T02:39:19.022Z,933.98
2019-04-19T02:40:39.640Z,933.99
2019-04-19T02:41:18.297Z,933.97
2019-04-19T02:42:21.162Z,933.95
2019-04-19T02:43:10.319Z,933.98
2019-04-19T02:45:23.870Z,933.93
2019-04-19T02:46:25.141Z,933.94
2019-04-19T02:47:21.735Z,933.96
2019-04-19T02:48:11.210Z,934.00
2019-04-19T02:49:21.814Z,933.97
2019-04-19T02:51:25.974Z,933.98
2019-04-19T02:52:09.647Z,933.97
2019-04-19T02:53:10.974Z,933.93
2019-04-19T02:54:13.496Z,933.93
2019-04-19T02:56:12.933Z,933.93
2019-04-19T02:57:15.944Z,933.91
2019-04-19T02:58:06.420Z,933.92
2019-04-19T02:59:16.873Z,933.91
2019-04-19T03:00:12.528Z,933.90
2019-04-19T03:01:19.123Z,933.89
2019-04-19T03:02:22.010Z,933.83
2019-04-19T03:03:06.259Z,933.81
2019-04-19T03:04:34.845Z,933.77
2019-04-19T03:06:00.089Z,933.69
2019-04-19T03:06:48.065Z,933.73
2019-04-19T03:07:42.576Z,933.71
2019-04-19T03:08:41.991Z,933.70
2019-04-19T03:09:44.082Z,933.74
2019-04-19T03:10:53.698Z,933.72
2019-04-19T03:11:58.513Z,933.71
2019-04-19T03:13:00.200Z,933.76
2019-04-19T03:13:59.128Z,933.79
2019-04-19T03:15:00.589Z,933.74
2019-04-19T03:15:58.410Z,933.78
2019-04-19T03:16:58.123Z,933.79
2019-04-19T03:17:55.694Z,933.77
2019-04-19T03:18:57.345Z,933.79
2019-04-19T03:19:54.202Z,933.75
2019-04-19T03:20:54.318Z,933.73
2019-04-19T03:21:59.655Z,933.71
2019-04-19T03:23:00.806Z,933.69
2019-04-19T03:24:00.238Z,933.71
2019-04-19T03:25:00.834Z,933.73
2019-04-19T03:25:51.756Z,933.70
2019-04-19T03:26:48.164Z,933.73
2019-04-19T03:27:52.352Z,933.74
2019-04-19T03:28:49.578Z,933.75
2019-04-19T03:29:45.289Z,933.76
2019-04-19T03:31:08.124Z,933.75
2019-04-19T03:32:21.963Z,933.73
2019-04-19T03:34:05.047Z,933.69
2019-04-19T03:36:03.943Z,933.69
2019-04-19T03:36:56.401Z,933.70
2019-04-19T03:38:03.609Z,933.66
2019-04-19T03:38:57.603Z,933.65
2019-04-19T03:40:08.527Z,933.64
2019-04-19T03:41:01.378Z,933.65
2019-04-19T03:42:18.772Z,933.62
2019-04-19T03:42:54.205Z,933.64
2019-04-19T03:43:59.971Z,933.61
2019-04-19T03:45:04.259Z,933.64
2019-04-19T03:46:05.102Z,933.58
2019-04-19T03:47:16.376Z,933.60
2019-04-19T03:48:05.262Z,933.61
2019-04-19T03:48:56.228Z,933.55
2019-04-19T03:49:57.231Z,933.61
2019-04-19T03:51:04.908Z,933.58
2019-04-19T03:52:18.791Z,933.57
2019-04-19T03:53:01.591Z,933.58
2019-04-19T03:54:00.165Z,933.55
2019-04-19T03:54:55.781Z,933.53
2019-04-19T03:56:08.082Z,933.50
2019-04-19T03:56:54.812Z,933.46
2019-04-19T03:57:50.448Z,933.44
2019-04-19T03:58:41.795Z,933.43
2019-04-19T03:59:41.482Z,933.40
2019-04-19T04:00:41.245Z,933.39
2019-04-19T04:01:46.487Z,933.37
2019-04-19T04:02:44.301Z,933.39
2019-04-19T04:03:45.071Z,933.41
2019-04-19T04:04:48.210Z,933.41
2019-04-19T04:05:44.434Z,933.44
2019-04-19T04:06:44.232Z,933.41
2019-04-19T04:07:41.268Z,933.40
2019-04-19T04:08:48.597Z,933.41
2019-04-19T04:09:47.484Z,933.37
2019-04-19T04:10:44.238Z,933.37
2019-04-19T04:11:53.203Z,933.31
2019-04-19T04:12:49.466Z,933.32
2019-04-19T04:13:56.979Z,933.32
2019-04-19T04:14:58.940Z,933.30
2019-04-19T04:15:54.124Z,933.30
2019-04-19T04:16:45.883Z,933.28
2019-04-19T04:17:41.515Z,933.27
2019-04-19T04:18:41.053Z,933.28
2019-04-19T04:19:41.715Z,933.27
2019-04-19T04:20:42.843Z,933.30
2019-04-19T04:21:46.365Z,933.32
2019-04-19T04:22:44.074Z,933.31
2019-04-19T04:23:44.370Z,933.33
2019-04-19T04:24:54.325Z,933.33
2019-04-19T04:25:49.077Z,933.32
2019-04-19T04:26:53.084Z,933.32
2019-04-19T04:27:54.459Z,933.31
2019-04-19T04:28:54.512Z,933.30
2019-04-19T04:29:50.007Z,933.31
2019-04-19T04:30:52.725Z,933.27
2019-04-19T04:31:52.888Z,933.27
2019-04-19T04:32:55.491Z,933.26
2019-04-19T04:33:52.676Z,933.24
2019-04-19T04:34:52.164Z,933.24
2019-04-19T04:35:53.210Z,933.26
2019-04-19T04:36:54.721Z,933.23
2019-04-19T04:37:54.804Z,933.25
2019-04-19T04:38:44.558Z,933.24
2019-04-19T04:39:41.041Z,933.18
2019-04-19T04:40:40.833Z,933.17
2019-04-19T04:41:43.836Z,933.17
2019-04-19T04:42:52.582Z,933.16
2019-04-19T04:43:55.953Z,933.17
2019-04-19T04:45:10.430Z,933.19
2019-04-19T04:46:12.322Z,933.15
2019-04-19T04:47:02.332Z,933.11
2019-04-19T04:47:56.014Z,933.12
2019-04-19T04:49:01.733Z,933.09
2019-04-19T04:50:09.437Z,933.08
2019-04-19T04:51:03.023Z,933.08
2019-04-19T04:51:57.163Z,933.06
2019-04-19T04:52:43.906Z,933.04
2019-04-19T04:53:40.821Z,933.07
2019-04-19T04:54:41.927Z,933.06
2019-04-19T04:55:45.015Z,933.05
2019-04-19T04:56:52.087Z,933.03
2019-04-19T04:57:50.735Z,933.00
2019-04-19T04:58:44.055Z,932.99
2019-04-19T04:59:45.330Z,932.99
2019-04-19T05:00:48.258Z,933.02
2019-04-19T05:01:50.729Z,933.00
2019-04-19T05:02:59.072Z,932.99
2019-04-19T05:03:58.135Z,933.01
2019-04-19T05:04:55.256Z,933.05
2019-04-19T05:06:02.943Z,933.02
2019-04-19T05:06:57.923Z,933.00
2019-04-19T05:08:03.139Z,933.01
2019-04-19T05:08:56.385Z,932.99
2019-04-19T05:10:00.162Z,932.98
2019-04-19T05:10:56.780Z,933.00
2019-04-19T05:12:09.039Z,932.97
2019-04-19T05:13:16.395Z,932.98
2019-04-19T05:14:03.106Z,933.00
2019-04-19T05:14:54.956Z,933.01
2019-04-19T05:15:59.382Z,933.00
2019-04-19T05:17:12.470Z,932.99
2019-04-19T05:18:08.047Z,932.94
2019-04-19T05:18:59.441Z,932.97
2019-04-19T05:20:06.117Z,932.94
2019-04-19T05:20:50.756Z,932.93
2019-04-19T05:22:00.922Z,932.93
2019-04-19T05:22:59.260Z,932.95
2019-04-19T05:25:05.254Z,932.95
2019-04-19T05:26:02.761Z,933.00
2019-04-19T05:27:07.782Z,933.02
2019-04-19T05:28:05.964Z,933.02
2019-04-19T05:28:55.606Z,933.03
2019-04-19T05:29:47.596Z,932.98
2019-04-19T05:30:46.969Z,933.01
2019-04-19T05:31:46.680Z,933.02
2019-04-19T05:32:44.302Z,933.00
2019-04-19T05:33:52.887Z,933.01
2019-04-19T05:34:54.998Z,933.03
2019-04-19T05:36:04.266Z,933.05
2019-04-19T05:36:57.441Z,933.06
2019-04-19T05:37:58.358Z,933.10
2019-04-19T05:39:04.611Z,933.06
2019-04-19T05:39:59.528Z,933.05
2019-04-19T05:40:55.020Z,933.06
2019-04-19T05:41:56.422Z,933.07
2019-04-19T05:42:58.772Z,933.09
2019-04-19T05:44:05.115Z,933.05
2019-04-19T05:45:18.461Z,933.05
2019-04-19T05:46:03.691Z,933.07
2019-04-19T05:47:01.395Z,933.04
2019-04-19T05:47:49.412Z,933.03
2019-04-19T05:48:49.253Z,933.06
2019-04-19T05:49:56.158Z,933.05
2019-04-19T05:51:09.083Z,933.01
2019-04-19T05:51:56.956Z,933.03
2019-04-19T05:52:56.236Z,933.04
2019-04-19T05:53:47.536Z,933.06
2019-04-19T05:54:40.816Z,933.06
2019-04-19T05:55:41.021Z,933.05
2019-04-19T05:56:48.362Z,933.05
2019-04-19T05:57:55.620Z,933.03
2019-04-19T05:58:48.973Z,933.03
2019-04-19T05:59:49.992Z,933.04
2019-04-19T06:00:55.211Z,933.03
2019-04-19T06:01:56.562Z,933.01
2019-04-19T06:02:53.429Z,933.07
2019-04-19T06:03:58.590Z,933.06
2019-04-19T06:05:09.116Z,933.04
2019-04-19T06:06:56.438Z,933.04
2019-04-19T06:07:53.848Z,933.03
2019-04-19T06:08:41.249Z,933.03
2019-04-19T06:09:40.935Z,933.01
2019-04-19T06:10:47.960Z,933.02
2019-04-19T06:11:41.653Z,932.99
2019-04-19T06:12:40.926Z,932.97
2019-04-19T06:13:45.089Z,932.91
2019-04-19T06:15:02.828Z,932.92
2019-04-19T06:15:59.585Z,932.95
2019-04-19T06:16:57.379Z,932.92
2019-04-19T06:17:56.399Z,932.87
2019-04-19T06:18:52.251Z,932.89
2019-04-19T06:19:50.493Z,932.89
2019-04-19T06:21:04.231Z,932.90
2019-04-19T06:21:53.774Z,932.88
2019-04-19T06:22:59.949Z,932.89
2019-04-19T06:23:58.413Z,932.88
2019-04-19T06:24:55.608Z,932.91
2019-04-19T06:26:21.675Z,932.86
2019-04-19T06:27:09.431Z,932.86
2019-04-19T06:30:05.860Z,932.87
2019-04-19T06:30:55.034Z,932.87
2019-04-19T06:32:02.304Z,932.82
2019-04-19T06:33:02.902Z,932.81
2019-04-19T06:34:01.560Z,932.81
2019-04-19T06:34:53.671Z,932.83
2019-04-19T06:35:48.550Z,932.84
2019-04-19T06:36:39.963Z,932.79
2019-04-19T06:37:40.462Z,932.77
2019-04-19T06:38:40.130Z,932.76
2019-04-19T06:39:39.607Z,932.78
2019-04-19T06:40:49.764Z,932.73
2019-04-19T06:41:47.576Z,932.74
2019-04-19T06:42:46.123Z,932.70
2019-04-19T06:43:53.636Z,932.70
2019-04-19T06:44:55.914Z,932.68
2019-04-19T06:45:55.400Z,932.71
2019-04-19T06:46:51.295Z,932.71
2019-04-19T06:47:47.967Z,932.73
2019-04-19T06:48:52.241Z,932.66
2019-04-19T06:49:40.676Z,932.67
2019-04-19T06:50:42.932Z,932.62
2019-04-19T06:51:48.697Z,932.58
2019-04-19T06:52:40.011Z,932.63
2019-04-19T06:53:47.460Z,932.58
2019-04-19T06:54:42.922Z,932.59
2019-04-19T06:55:44.967Z,932.58
2019-04-19T06:56:43.153Z,932.56
2019-04-19T06:57:52.711Z,932.58
2019-04-19T06:58:47.105Z,932.57
2019-04-19T06:59:55.106Z,932.58
2019-04-19T07:00:54.536Z,932.60
2019-04-19T07:01:46.556Z,932.57
2019-04-19T07:02:39.383Z,932.57
2019-04-19T07:03:40.631Z,932.57
2019-04-19T07:04:49.395Z,932.59
2019-04-19T07:05:49.577Z,932.60
2019-04-19T07:06:53.624Z,932.61
2019-04-19T07:08:04.364Z,932.58
2019-04-19T07:10:06.283Z,932.51
2019-04-19T07:11:00.513Z,932.53
2019-04-19T07:12:02.125Z,932.47
2019-04-19T07:12:59.641Z,932.51
2019-04-19T07:13:51.817Z,932.56
2019-04-19T07:14:54.585Z,932.55
2019-04-19T07:16:13.370Z,932.56
2019-04-19T07:16:55.766Z,932.51
2019-04-19T07:17:55.921Z,932.48
2019-04-19T07:18:49.830Z,932.47
2019-04-19T07:19:58.049Z,932.41
2019-04-19T07:21:00.710Z,932.39
2019-04-19T07:21:55.337Z,932.39
2019-04-19T07:22:55.565Z,932.40
2019-04-19T07:24:01.775Z,932.41
2019-04-19T07:25:07.833Z,932.41
2019-04-19T07:26:04.588Z,932.40
2019-04-19T07:26:57.674Z,932.38
2019-04-19T07:27:50.257Z,932.32
2019-04-19T07:28:41.450Z,932.36
2019-04-19T07:29:40.333Z,932.33
2019-04-19T07:30:41.935Z,932.32
2019-04-19T07:31:40.175Z,932.33
2019-04-19T07:32:44.662Z,932.34
2019-04-19T07:33:50.288Z,932.34
2019-04-19T07:34:52.099Z,932.38
2019-04-19T07:36:01.807Z,932.39
2019-04-19T07:36:57.689Z,932.36
2019-04-19T07:37:58.814Z,932.37
2019-04-19T07:38:59.604Z,932.35
2019-04-19T07:40:05.713Z,932.35
2019-04-19T07:41:01.611Z,932.38
2019-04-19T07:42:02.053Z,932.38
2019-04-19T07:42:57.773Z,932.37
2019-04-19T07:43:51.281Z,932.37
2019-04-19T07:44:45.973Z,932.40
2019-04-19T07:46:02.570Z,932.39
2019-04-19T07:46:58.085Z,932.39
2019-04-19T07:47:47.512Z,932.37
2019-04-19T07:48:38.883Z,932.36
2019-04-19T07:49:48.428Z,932.42
2019-04-19T07:50:50.033Z,932.43
2019-04-19T07:51:51.415Z,932.46
2019-04-19T07:52:47.365Z,932.48
2019-04-19T07:53:45.320Z,932.52
2019-04-19T07:54:39.430Z,932.50
2019-04-19T07:55:51.625Z,932.51
2019-04-19T07:56:51.756Z,932.48
2019-04-19T07:58:16.851Z,932.53
2019-04-19T07:59:07.852Z,932.52
2019-04-19T08:00:10.864Z,932.56
2019-04-19T08:01:13.063Z,932.58
2019-04-19T08:06:14.071Z,932.60
2019-04-19T08:07:06.780Z,932.67
2019-04-19T08:09:05.236Z,932.69
2019-04-19T08:13:16.836Z,932.73
2019-04-19T08:14:01.296Z,932.76
2019-04-19T08:15:06.499Z,932.75
2019-04-19T08:16:24.916Z,932.76
2019-04-19T08:18:07.490Z,932.75
2019-04-19T08:27:41.415Z,932.96
2019-04-19T08:28:44.972Z,932.91
2019-04-19T08:29:48.547Z,932.97
2019-04-19T08:30:45.065Z,932.98
2019-04-19T08:31:38.454Z,932.99
2019-04-19T08:32:38.539Z,933.03
2019-04-19T08:33:38.834Z,933.03
2019-04-19T08:34:40.120Z,933.05
2019-04-19T08:35:41.138Z,933.03
2019-04-19T08:36:43.609Z,933.05
2019-04-19T08:37:42.355Z,933.05
2019-04-19T08:38:43.903Z,933.10
2019-04-19T08:39:52.329Z,933.11
2019-04-19T08:40:55.611Z,933.11
2019-04-19T08:42:03.053Z,933.16
2019-04-19T08:42:54.144Z,933.15
2019-04-19T08:43:54.726Z,933.17
2019-04-19T08:44:49.715Z,933.19
2019-04-19T08:45:38.285Z,933.25
2019-04-19T08:46:38.761Z,933.25
2019-04-19T08:47:44.855Z,933.32
2019-04-19T08:48:47.080Z,933.32
2019-04-19T08:49:42.969Z,933.33
2019-04-19T08:50:43.653Z,933.32
2019-04-19T08:51:40.241Z,933.34
2019-04-19T08:52:40.134Z,933.36
2019-04-19T08:53:51.833Z,933.34
2019-04-19T08:54:57.628Z,933.37
2019-04-19T08:55:58.220Z,933.42
2019-04-19T08:56:44.908Z,933.46
2019-04-19T08:57:39.332Z,933.47
2019-04-19T08:58:54.384Z,933.49
2019-04-19T08:59:59.267Z,933.50
2019-04-19T09:01:03.689Z,933.49
2019-04-19T09:01:50.898Z,933.52
2019-04-19T09:02:52.854Z,933.50
2019-04-19T09:03:56.951Z,933.52
2019-04-19T09:04:57.731Z,933.55
2019-04-19T09:06:20.327Z,933.59
2019-04-19T09:08:13.327Z,933.62
2019-04-19T09:08:53.436Z,933.65
2019-04-19T09:10:14.013Z,933.64
2019-04-19T09:10:55.891Z,933.68
2019-04-19T09:11:57.955Z,933.69
2019-04-19T09:13:07.423Z,933.72
2019-04-19T09:14:00.360Z,933.69
2019-04-19T09:14:56.785Z,933.70
2019-04-19T09:15:57.276Z,933.75
2019-04-19T09:17:05.777Z,933.76
2019-04-19T09:18:19.897Z,933.79
2019-04-19T09:19:02.269Z,933.78
2019-04-19T09:20:54.852Z,933.77
2019-04-19T09:21:48.427Z,933.79
2019-04-19T09:22:50.953Z,933.77
2019-04-19T09:23:46.962Z,933.80
2019-04-19T09:24:51.794Z,933.82
2019-04-19T09:25:50.925Z,933.84
2019-04-19T09:26:52.778Z,933.84
2019-04-19T09:27:59.882Z,933.89
2019-04-19T09:28:54.524Z,933.93
2019-04-19T09:29:58.682Z,933.91
2019-04-19T09:30:57.089Z,933.91
2019-04-19T09:31:48.230Z,933.93
2019-04-19T09:32:40.191Z,933.92
2019-04-19T09:33:41.058Z,933.93
2019-04-19T09:34:43.871Z,933.96
2019-04-19T09:35:48.683Z,933.97
2019-04-19T09:36:43.434Z,933.98
2019-04-19T09:37:52.586Z,933.98
2019-04-19T09:38:51.813Z,933.98
2019-04-19T09:39:48.671Z,934.01
2019-04-19T09:40:44.486Z,934.07
2019-04-19T09:41:44.209Z,934.04
2019-04-19T09:42:49.589Z,934.04
2019-04-19T09:43:49.463Z,934.04
2019-04-19T09:44:44.824Z,934.05
2019-04-19T09:45:38.231Z,934.04
2019-04-19T09:46:38.050Z,934.05
2019-04-19T09:47:37.822Z,934.04
2019-04-19T09:48:55.388Z,934.08
2019-04-19T09:49:53.312Z,934.10
2019-04-19T09:50:49.947Z,934.11
2019-04-19T09:51:52.529Z,934.12
2019-04-19T09:52:59.921Z,934.15
2019-04-19T09:54:17.018Z,934.17
2019-04-19T09:55:03.598Z,934.18
2019-04-19T09:56:00.018Z,934.17
2019-04-19T09:56:53.659Z,934.14
2019-04-19T09:58:00.625Z,934.16
2019-04-19T09:58:51.281Z,934.19
2019-04-19T09:59:40.825Z,934.21
2019-04-19T10:00:38.536Z,934.23
2019-04-19T10:01:42.630Z,934.24
2019-04-19T10:02:44.264Z,934.28
2019-04-19T10:03:44.098Z,934.29
2019-04-19T10:04:37.851Z,934.31
2019-04-19T10:05:37.433Z,934.36
2019-04-19T10:06:38.502Z,934.35
2019-04-19T10:07:38.798Z,934.36
2019-04-19T10:08:37.761Z,934.38
2019-04-19T10:09:38.337Z,934.38
2019-04-19T10:10:38.653Z,934.40
2019-04-19T10:11:37.363Z,934.36
2019-04-19T10:12:37.835Z,934.32
2019-04-19T10:13:37.669Z,934.32
2019-04-19T10:14:37.459Z,934.35
2019-04-19T10:15:38.384Z,934.33
2019-04-19T10:16:37.316Z,934.34
2019-04-19T10:17:38.304Z,934.41
2019-04-19T10:18:45.995Z,934.39
2019-04-19T10:19:37.283Z,934.39
2019-04-19T10:20:38.528Z,934.43
2019-04-19T10:21:38.813Z,934.44
2019-04-19T10:22:37.245Z,934.42
2019-04-19T10:23:37.977Z,934.43
2019-04-19T10:24:37.215Z,934.44
2019-04-19T10:25:41.871Z,934.43
2019-04-19T10:26:38.325Z,934.48
2019-04-19T10:27:37.742Z,934.46
2019-04-19T10:28:37.880Z,934.47
2019-04-19T10:29:40.157Z,934.49
2019-04-19T10:30:38.449Z,934.45
2019-04-19T10:31:37.710Z,934.43
2019-04-19T10:32:38.352Z,934.38
2019-04-19T10:33:44.718Z,934.42
2019-04-19T10:34:37.128Z,934.42
2019-04-19T10:35:37.852Z,934.41
2019-04-19T10:36:37.108Z,934.42
2019-04-19T10:37:37.704Z,934.40
2019-04-19T10:38:37.966Z,934.39
2019-04-19T10:39:37.358Z,934.37
2019-04-19T10:40:37.639Z,934.38
2019-04-19T10:41:38.338Z,934.39
2019-04-19T10:42:37.030Z,934.40
2019-04-19T10:43:37.239Z,934.37
2019-04-19T10:44:38.068Z,934.42
2019-04-19T10:45:38.265Z,934.40
2019-04-19T10:46:36.999Z,934.43
2019-04-19T10:47:37.894Z,934.43
2019-04-19T10:48:36.982Z,934.45
2019-04-19T10:49:44.252Z,934.44
2019-04-19T10:50:42.732Z,934.43
2019-04-19T10:51:37.583Z,934.42
2019-04-19T10:52:37.379Z,934.41
2019-04-19T10:53:36.912Z,934.41
2019-04-19T10:54:38.193Z,934.41
2019-04-19T10:55:38.147Z,934.39
2019-04-19T10:56:36.897Z,934.41
2019-04-19T10:57:36.878Z,934.40
2019-04-19T10:58:36.871Z,934.39
2019-04-19T10:59:36.846Z,934.42
2019-04-19T11:00:37.611Z,934.40
2019-04-19T11:01:37.079Z,934.42
2019-04-19T11:02:38.277Z,934.47
2019-04-19T11:03:37.056Z,934.45
2019-04-19T11:04:36.816Z,934.48
2019-04-19T11:05:36.782Z,934.47
2019-04-19T11:06:37.588Z,934.47
2019-04-19T11:07:39.850Z,934.50
2019-04-19T11:08:36.772Z,934.51
2019-04-19T11:09:37.510Z,934.55
2019-04-19T11:10:37.771Z,934.57
2019-04-19T11:11:37.261Z,934.55
2019-04-19T11:12:36.731Z,934.59
2019-04-19T11:13:38.030Z,934.64
2019-04-19T11:14:36.697Z,934.70
2019-04-19T11:15:36.696Z,934.71
2019-04-19T11:16:37.594Z,934.70
2019-04-19T11:17:37.955Z,934.68
2019-04-19T11:18:37.340Z,934.72
2019-04-19T11:19:52.169Z,934.73
2019-04-19T11:20:44.164Z,934.73
2019-04-19T11:21:37.724Z,934.77
2019-04-19T11:22:37.571Z,934.82
2019-04-19T11:23:37.828Z,934.87
2019-04-19T11:24:36.616Z,934.83
2019-04-19T11:25:37.795Z,934.89
2019-04-19T11:26:36.974Z,934.88
2019-04-19T11:27:37.378Z,934.87
2019-04-19T11:28:36.690Z,934.91
2019-04-19T11:29:36.642Z,934.87
2019-04-19T11:30:37.215Z,934.91
2019-04-19T11:31:36.536Z,934.87
2019-04-19T11:32:37.827Z,934.91
2019-04-19T11:33:37.173Z,934.94
2019-04-19T11:34:37.450Z,934.92
2019-04-19T11:35:37.193Z,934.96
2019-04-19T11:36:37.573Z,934.96
2019-04-19T11:37:37.112Z,934.96
2019-04-19T11:38:36.713Z,935.00
2019-04-19T11:39:37.140Z,935.03
2019-04-19T11:40:37.352Z,934.99
2019-04-19T11:41:36.937Z,934.97
2019-04-19T11:42:37.241Z,934.97
2019-04-19T11:43:37.658Z,934.98
2019-04-19T11:44:36.398Z,934.95
2019-04-19T11:45:37.720Z,934.99
2019-04-19T11:46:36.393Z,935.02
2019-04-19T11:47:37.405Z,934.98
2019-04-19T11:48:37.465Z,935.03
2019-04-19T11:49:40.231Z,935.04
2019-04-19T11:50:36.386Z,935.04
2019-04-19T11:51:36.330Z,935.04
2019-04-19T11:52:37.618Z,935.08
2019-04-19T11:53:36.546Z,935.07
2019-04-19T11:54:36.620Z,935.08
2019-04-19T11:55:36.303Z,935.07
2019-04-19T11:56:45.560Z,935.05
2019-04-19T11:57:36.552Z,935.03
2019-04-19T11:58:36.325Z,935.04
2019-04-19T11:59:43.883Z,935.04
2019-04-19T12:00:36.297Z,935.00
2019-04-19T12:01:37.357Z,935.03
2019-04-19T12:02:36.250Z,935.00
2019-04-19T12:03:39.896Z,935.05
2019-04-19T12:04:36.383Z,935.04
2019-04-19T12:05:36.222Z,935.05
2019-04-19T12:06:36.422Z,935.06
2019-04-19T12:07:36.799Z,935.07
2019-04-19T12:08:36.293Z,935.11
2019-04-19T12:09:36.533Z,935.07
2019-04-19T12:10:37.050Z,935.10
2019-04-19T12:11:36.198Z,935.10
2019-04-19T12:12:37.148Z,935.08
2019-04-19T12:13:38.399Z,935.11
2019-04-19T12:14:36.165Z,935.12
2019-04-19T12:15:36.132Z,935.12
2019-04-19T12:16:37.071Z,935.09
2019-04-19T12:17:36.123Z,935.12
2019-04-19T12:18:38.821Z,935.13
2019-04-19T12:19:45.603Z,935.13
2019-04-19T12:20:37.355Z,935.16
2019-04-19T12:21:36.982Z,935.14
2019-04-19T12:22:36.096Z,935.17
2019-04-19T12:23:36.979Z,935.18
2019-04-19T12:24:36.136Z,935.21
2019-04-19T12:25:36.072Z,935.15
2019-04-19T12:26:36.055Z,935.18
2019-04-19T12:27:36.060Z,935.21
2019-04-19T12:28:36.028Z,935.22
2019-04-19T12:29:44.283Z,935.24
2019-04-19T12:30:38.339Z,935.23
2019-04-19T12:31:37.142Z,935.24
2019-04-19T12:32:37.317Z,935.27
2019-04-19T12:33:37.396Z,935.28
2019-04-19T12:34:36.902Z,935.30
2019-04-19T12:35:37.033Z,935.29
2019-04-19T12:36:37.131Z,935.28
2019-04-19T12:37:37.303Z,935.30
2019-04-19T12:38:35.987Z,935.35
2019-04-19T12:39:36.972Z,935.32
2019-04-19T12:40:36.059Z,935.31
2019-04-19T12:41:35.974Z,935.30
2019-04-19T12:42:36.082Z,935.32
2019-04-19T12:43:36.148Z,935.31
2019-04-19T12:44:38.916Z,935.33
2019-04-19T12:45:35.937Z,935.35
2019-04-19T12:46:37.005Z,935.36
2019-04-19T12:47:38.149Z,935.35
2019-04-19T12:48:35.948Z,935.33
2019-04-19T12:49:47.830Z,935.34
2019-04-19T12:50:37.341Z,935.33
2019-04-19T12:51:36.454Z,935.31
2019-04-19T12:52:35.941Z,935.33
2019-04-19T12:53:36.940Z,935.32
2019-04-19T12:54:36.214Z,935.33
2019-04-19T12:55:35.898Z,935.36
2019-04-19T12:56:36.040Z,935.33
2019-04-19T12:57:36.201Z,935.37
2019-04-19T12:58:35.920Z,935.39
2019-04-19T12:59:35.979Z,935.37